Centerville, Washington
Current Conditions -  °F | °C
As of 1:53 PM on Thursday 18 Dec 2014 (Local Time) from KDLS Reporting Station
Light Rain Light Rain  
Wind Chill:   Ceiling: 6000
Heat Index:   Visibility: 9mi
Dew Point:   Wind: 0mph
Humidity: 82%   Direction: NA
Pressure: 29.98"   Gusts: NA
Location:  45.75°N, 120.91°W
Report Text: KDLS 182153Z AUTO 00000KT 9SM -RA SCT010 OVC060 06/03 A2998 RMK AO2 RAB52 SLP155 P0000 T00560028
Loading
Personal Weather Stations






























Interactive Weather Map New forecast layout! Learn more

10-Day Weather Forecast

Advertisements
Track Severe Weather on mobile